sensor_id;sensor_type;location;lat;lon;timestamp;P1;durP1;ratioP1;P2;durP2;ratioP2
66802;SDS011;53705;49.860;8.744;2023-07-08T00:00:25;9.93;;;4.05;;
66802;SDS011;53705;49.860;8.744;2023-07-08T00:02:55;8.38;;;3.17;;
66802;SDS011;53705;49.860;8.744;2023-07-08T00:05:24;11.10;;;3.55;;
66802;SDS011;53705;49.860;8.744;2023-07-08T00:07:53;9.57;;;3.92;;
66802;SDS011;53705;49.860;8.744;2023-07-08T00:10:21;8.95;;;3.67;;
66802;SDS011;53705;49.860;8.744;2023-07-08T00:12:50;9.63;;;3.15;;
66802;SDS011;53705;49.860;8.744;2023-07-08T00:15:18;9.15;;;3.45;;
66802;SDS011;53705;49.860;8.744;2023-07-08T00:17:50;12.18;;;3.85;;
66802;SDS011;53705;49.860;8.744;2023-07-08T00:20:19;9.38;;;3.42;;
66802;SDS011;53705;49.860;8.744;2023-07-08T00:22:47;8.13;;;3.03;;
66802;SDS011;53705;49.860;8.744;2023-07-08T00:25:16;8.15;;;3.53;;
66802;SDS011;53705;49.860;8.744;2023-07-08T00:27:46;8.75;;;3.10;;
66802;SDS011;53705;49.860;8.744;2023-07-08T00:30:17;7.72;;;3.05;;
66802;SDS011;53705;49.860;8.744;2023-07-08T00:32:46;8.93;;;3.00;;
66802;SDS011;53705;49.860;8.744;2023-07-08T00:35:15;10.43;;;3.92;;
66802;SDS011;53705;49.860;8.744;2023-07-08T00:37:43;9.65;;;2.83;;
66802;SDS011;53705;49.860;8.744;2023-07-08T00:40:14;9.00;;;3.30;;
66802;SDS011;53705;49.860;8.744;2023-07-08T00:42:43;9.60;;;3.55;;
66802;SDS011;53705;49.860;8.744;2023-07-08T00:45:15;7.38;;;2.78;;
66802;SDS011;53705;49.860;8.744;2023-07-08T00:47:44;7.93;;;3.10;;
66802;SDS011;53705;49.860;8.744;2023-07-08T00:50:13;9.50;;;3.25;;
66802;SDS011;53705;49.860;8.744;2023-07-08T00:52:46;9.00;;;3.95;;
66802;SDS011;53705;49.860;8.744;2023-07-08T00:55:14;11.60;;;4.32;;
66802;SDS011;53705;49.860;8.744;2023-07-08T00:57:43;10.65;;;3.97;;
66802;SDS011;53705;49.860;8.744;2023-07-08T01:00:12;12.35;;;4.00;;
66802;SDS011;53705;49.860;8.744;2023-07-08T01:02:45;14.07;;;4.68;;
66802;SDS011;53705;49.860;8.744;2023-07-08T01:05:14;10.65;;;3.63;;
66802;SDS011;53705;49.860;8.744;2023-07-08T01:07:44;11.52;;;4.50;;
66802;SDS011;53705;49.860;8.744;2023-07-08T01:10:14;16.85;;;5.60;;
66802;SDS011;53705;49.860;8.744;2023-07-08T01:12:45;11.55;;;4.78;;
66802;SDS011;53705;49.860;8.744;2023-07-08T01:15:15;13.73;;;5.05;;
66802;SDS011;53705;49.860;8.744;2023-07-08T01:17:43;11.57;;;4.57;;
66802;SDS011;53705;49.860;8.744;2023-07-08T01:20:11;9.75;;;4.30;;
66802;SDS011;53705;49.860;8.744;2023-07-08T01:22:43;11.63;;;5.13;;
66802;SDS011;53705;49.860;8.744;2023-07-08T01:25:11;12.75;;;3.80;;
66802;SDS011;53705;49.860;8.744;2023-07-08T01:27:45;10.43;;;4.10;;
66802;SDS011;53705;49.860;8.744;2023-07-08T01:30:14;12.73;;;4.35;;
66802;SDS011;53705;49.860;8.744;2023-07-08T01:32:44;10.77;;;3.38;;
66802;SDS011;53705;49.860;8.744;2023-07-08T01:35:12;10.23;;;4.03;;
66802;SDS011;53705;49.860;8.744;2023-07-08T01:37:41;10.25;;;3.25;;
66802;SDS011;53705;49.860;8.744;2023-07-08T01:40:23;8.63;;;2.72;;
66802;SDS011;53705;49.860;8.744;2023-07-08T01:42:51;8.68;;;2.80;;
66802;SDS011;53705;49.860;8.744;2023-07-08T01:45:20;8.75;;;2.88;;
66802;SDS011;53705;49.860;8.744;2023-07-08T01:47:50;9.38;;;3.33;;
66802;SDS011;53705;49.860;8.744;2023-07-08T01:50:19;8.32;;;2.60;;
66802;SDS011;53705;49.860;8.744;2023-07-08T01:52:48;7.93;;;2.92;;
66802;SDS011;53705;49.860;8.744;2023-07-08T01:55:20;8.35;;;2.90;;
66802;SDS011;53705;49.860;8.744;2023-07-08T01:57:51;10.10;;;3.35;;
66802;SDS011;53705;49.860;8.744;2023-07-08T02:00:20;8.30;;;3.45;;
66802;SDS011;53705;49.860;8.744;2023-07-08T02:02:49;8.48;;;3.63;;
66802;SDS011;53705;49.860;8.744;2023-07-08T02:05:18;9.27;;;3.90;;
66802;SDS011;53705;49.860;8.744;2023-07-08T02:07:46;10.88;;;3.75;;
66802;SDS011;53705;49.860;8.744;2023-07-08T02:10:14;11.05;;;3.80;;
66802;SDS011;53705;49.860;8.744;2023-07-08T02:12:49;12.73;;;3.95;;
66802;SDS011;53705;49.860;8.744;2023-07-08T02:15:18;11.40;;;3.67;;
66802;SDS011;53705;49.860;8.744;2023-07-08T02:17:46;11.23;;;3.70;;
66802;SDS011;53705;49.860;8.744;2023-07-08T02:20:15;11.88;;;4.30;;
66802;SDS011;53705;49.860;8.744;2023-07-08T02:22:43;9.95;;;4.82;;
66802;SDS011;53705;49.860;8.744;2023-07-08T02:25:14;11.00;;;4.07;;
66802;SDS011;53705;49.860;8.744;2023-07-08T02:27:42;11.18;;;4.15;;
66802;SDS011;53705;49.860;8.744;2023-07-08T02:30:10;10.63;;;4.40;;
66802;SDS011;53705;49.860;8.744;2023-07-08T02:32:39;11.88;;;4.32;;
66802;SDS011;53705;49.860;8.744;2023-07-08T02:35:08;11.63;;;4.75;;
66802;SDS011;53705;49.860;8.744;2023-07-08T02:37:36;14.68;;;5.88;;
66802;SDS011;53705;49.860;8.744;2023-07-08T02:40:04;12.70;;;4.63;;
66802;SDS011;53705;49.860;8.744;2023-07-08T02:42:32;12.43;;;5.47;;
66802;SDS011;53705;49.860;8.744;2023-07-08T02:45:00;16.98;;;6.07;;
66802;SDS011;53705;49.860;8.744;2023-07-08T02:47:29;13.20;;;5.85;;
66802;SDS011;53705;49.860;8.744;2023-07-08T02:49:58;14.02;;;5.35;;
66802;SDS011;53705;49.860;8.744;2023-07-08T02:52:26;13.70;;;5.50;;
66802;SDS011;53705;49.860;8.744;2023-07-08T02:54:54;12.02;;;5.25;;
66802;SDS011;53705;49.860;8.744;2023-07-08T02:57:22;14.68;;;5.97;;
66802;SDS011;53705;49.860;8.744;2023-07-08T02:59:49;12.40;;;5.78;;
66802;SDS011;53705;49.860;8.744;2023-07-08T03:02:17;14.40;;;5.53;;
66802;SDS011;53705;49.860;8.744;2023-07-08T03:04:45;10.88;;;5.20;;
66802;SDS011;53705;49.860;8.744;2023-07-08T03:07:15;12.60;;;6.32;;
66802;SDS011;53705;49.860;8.744;2023-07-08T03:09:43;12.80;;;4.97;;
66802;SDS011;53705;49.860;8.744;2023-07-08T03:12:11;13.32;;;5.60;;
66802;SDS011;53705;49.860;8.744;2023-07-08T03:14:39;13.40;;;5.72;;
66802;SDS011;53705;49.860;8.744;2023-07-08T03:17:07;11.30;;;5.53;;
66802;SDS011;53705;49.860;8.744;2023-07-08T03:19:35;19.90;;;5.13;;
66802;SDS011;53705;49.860;8.744;2023-07-08T03:22:03;12.65;;;5.28;;
66802;SDS011;53705;49.860;8.744;2023-07-08T03:24:34;13.10;;;4.82;;
66802;SDS011;53705;49.860;8.744;2023-07-08T03:27:03;14.68;;;4.75;;
66802;SDS011;53705;49.860;8.744;2023-07-08T03:29:35;11.70;;;4.85;;
66802;SDS011;53705;49.860;8.744;2023-07-08T03:32:03;11.40;;;5.10;;
66802;SDS011;53705;49.860;8.744;2023-07-08T03:34:32;11.65;;;5.13;;
66802;SDS011;53705;49.860;8.744;2023-07-08T03:36:59;11.82;;;4.97;;
66802;SDS011;53705;49.860;8.744;2023-07-08T03:39:28;12.85;;;5.30;;
66802;SDS011;53705;49.860;8.744;2023-07-08T03:41:59;13.55;;;5.43;;
66802;SDS011;53705;49.860;8.744;2023-07-08T03:44:28;11.63;;;5.18;;
66802;SDS011;53705;49.860;8.744;2023-07-08T03:46:56;13.25;;;5.20;;
66802;SDS011;53705;49.860;8.744;2023-07-08T03:49:24;13.60;;;5.95;;
66802;SDS011;53705;49.860;8.744;2023-07-08T03:51:54;11.65;;;5.05;;
66802;SDS011;53705;49.860;8.744;2023-07-08T03:54:23;10.18;;;4.63;;
66802;SDS011;53705;49.860;8.744;2023-07-08T03:56:54;12.93;;;5.72;;
66802;SDS011;53705;49.860;8.744;2023-07-08T03:59:25;12.23;;;5.95;;
66802;SDS011;53705;49.860;8.744;2023-07-08T04:01:55;12.52;;;5.25;;
66802;SDS011;53705;49.860;8.744;2023-07-08T04:04:26;12.43;;;4.30;;
66802;SDS011;53705;49.860;8.744;2023-07-08T04:06:53;11.15;;;3.83;;
66802;SDS011;53705;49.860;8.744;2023-07-08T04:09:21;11.30;;;4.45;;
66802;SDS011;53705;49.860;8.744;2023-07-08T04:11:49;10.18;;;3.88;;
66802;SDS011;53705;49.860;8.744;2023-07-08T04:14:17;10.63;;;4.85;;
66802;SDS011;53705;49.860;8.744;2023-07-08T04:16:48;10.95;;;4.03;;
66802;SDS011;53705;49.860;8.744;2023-07-08T04:19:18;12.18;;;4.05;;
66802;SDS011;53705;49.860;8.744;2023-07-08T04:21:54;11.57;;;4.43;;
66802;SDS011;53705;49.860;8.744;2023-07-08T04:24:22;10.82;;;4.35;;
66802;SDS011;53705;49.860;8.744;2023-07-08T04:26:50;9.15;;;3.83;;
66802;SDS011;53705;49.860;8.744;2023-07-08T04:29:19;10.13;;;4.20;;
66802;SDS011;53705;49.860;8.744;2023-07-08T04:31:49;9.32;;;3.58;;
66802;SDS011;53705;49.860;8.744;2023-07-08T04:34:17;13.52;;;4.05;;
66802;SDS011;53705;49.860;8.744;2023-07-08T04:36:46;11.48;;;4.15;;
66802;SDS011;53705;49.860;8.744;2023-07-08T04:39:14;9.13;;;3.97;;
66802;SDS011;53705;49.860;8.744;2023-07-08T04:41:41;11.98;;;4.35;;
66802;SDS011;53705;49.860;8.744;2023-07-08T04:44:10;10.75;;;3.67;;
66802;SDS011;53705;49.860;8.744;2023-07-08T04:46:38;7.47;;;3.35;;
66802;SDS011;53705;49.860;8.744;2023-07-08T04:49:09;10.15;;;3.83;;
66802;SDS011;53705;49.860;8.744;2023-07-08T04:51:37;9.82;;;4.13;;
66802;SDS011;53705;49.860;8.744;2023-07-08T04:54:05;8.93;;;4.03;;
66802;SDS011;53705;49.860;8.744;2023-07-08T04:56:35;12.10;;;3.90;;
66802;SDS011;53705;49.860;8.744;2023-07-08T04:59:03;12.32;;;4.35;;
66802;SDS011;53705;49.860;8.744;2023-07-08T05:01:32;10.95;;;4.40;;
66802;SDS011;53705;49.860;8.744;2023-07-08T05:04:00;10.88;;;3.92;;
66802;SDS011;53705;49.860;8.744;2023-07-08T05:06:29;8.20;;;3.35;;
66802;SDS011;53705;49.860;8.744;2023-07-08T05:08:57;9.10;;;3.70;;
66802;SDS011;53705;49.860;8.744;2023-07-08T05:11:25;8.00;;;4.10;;
66802;SDS011;53705;49.860;8.744;2023-07-08T05:13:53;9.35;;;3.55;;
66802;SDS011;53705;49.860;8.744;2023-07-08T05:16:21;9.20;;;3.70;;
66802;SDS011;53705;49.860;8.744;2023-07-08T05:18:49;10.35;;;4.45;;
66802;SDS011;53705;49.860;8.744;2023-07-08T05:21:17;8.02;;;3.72;;
66802;SDS011;53705;49.860;8.744;2023-07-08T05:23:47;9.63;;;3.97;;
66802;SDS011;53705;49.860;8.744;2023-07-08T05:26:16;13.82;;;4.18;;
66802;SDS011;53705;49.860;8.744;2023-07-08T05:28:44;8.60;;;3.88;;
66802;SDS011;53705;49.860;8.744;2023-07-08T05:31:12;10.15;;;3.92;;
66802;SDS011;53705;49.860;8.744;2023-07-08T05:33:40;10.25;;;3.53;;
66802;SDS011;53705;49.860;8.744;2023-07-08T05:36:08;10.50;;;4.28;;
66802;SDS011;53705;49.860;8.744;2023-07-08T05:38:36;10.57;;;4.53;;
66802;SDS011;53705;49.860;8.744;2023-07-08T05:41:06;8.23;;;3.85;;
66802;SDS011;53705;49.860;8.744;2023-07-08T05:43:34;7.55;;;3.35;;
66802;SDS011;53705;49.860;8.744;2023-07-08T05:46:02;12.05;;;4.40;;
66802;SDS011;53705;49.860;8.744;2023-07-08T05:48:38;10.98;;;4.40;;
66802;SDS011;53705;49.860;8.744;2023-07-08T05:51:06;17.23;;;4.40;;
66802;SDS011;53705;49.860;8.744;2023-07-08T05:53:34;10.32;;;4.03;;
66802;SDS011;53705;49.860;8.744;2023-07-08T05:56:02;8.20;;;3.92;;
66802;SDS011;53705;49.860;8.744;2023-07-08T05:58:31;10.77;;;3.97;;
66802;SDS011;53705;49.860;8.744;2023-07-08T06:00:59;10.55;;;4.57;;
66802;SDS011;53705;49.860;8.744;2023-07-08T06:03:28;9.00;;;3.88;;
66802;SDS011;53705;49.860;8.744;2023-07-08T06:05:56;10.48;;;3.95;;
66802;SDS011;53705;49.860;8.744;2023-07-08T06:08:24;9.90;;;3.75;;
66802;SDS011;53705;49.860;8.744;2023-07-08T06:10:52;9.90;;;3.85;;
66802;SDS011;53705;49.860;8.744;2023-07-08T06:13:20;9.75;;;3.95;;
66802;SDS011;53705;49.860;8.744;2023-07-08T06:15:49;11.43;;;3.88;;
66802;SDS011;53705;49.860;8.744;2023-07-08T06:18:17;9.38;;;3.97;;
66802;SDS011;53705;49.860;8.744;2023-07-08T06:20:50;9.55;;;3.78;;
66802;SDS011;53705;49.860;8.744;2023-07-08T06:23:18;10.85;;;4.07;;
66802;SDS011;53705;49.860;8.744;2023-07-08T06:25:46;12.68;;;4.10;;
66802;SDS011;53705;49.860;8.744;2023-07-08T06:28:14;8.07;;;3.28;;
66802;SDS011;53705;49.860;8.744;2023-07-08T06:30:42;8.50;;;3.72;;
66802;SDS011;53705;49.860;8.744;2023-07-08T06:33:11;8.05;;;3.42;;
66802;SDS011;53705;49.860;8.744;2023-07-08T06:35:40;9.57;;;4.20;;
66802;SDS011;53705;49.860;8.744;2023-07-08T06:38:08;10.55;;;3.65;;
66802;SDS011;53705;49.860;8.744;2023-07-08T06:40:36;8.45;;;3.60;;
66802;SDS011;53705;49.860;8.744;2023-07-08T06:43:04;10.20;;;3.85;;
66802;SDS011;53705;49.860;8.744;2023-07-08T06:45:40;8.23;;;3.15;;
66802;SDS011;53705;49.860;8.744;2023-07-08T06:48:08;7.72;;;3.05;;
66802;SDS011;53705;49.860;8.744;2023-07-08T06:50:41;9.43;;;3.08;;
66802;SDS011;53705;49.860;8.744;2023-07-08T06:53:09;9.75;;;2.90;;
66802;SDS011;53705;49.860;8.744;2023-07-08T06:55:37;11.43;;;3.20;;
66802;SDS011;53705;49.860;8.744;2023-07-08T06:58:05;7.85;;;3.03;;
66802;SDS011;53705;49.860;8.744;2023-07-08T07:00:33;7.55;;;2.58;;
66802;SDS011;53705;49.860;8.744;2023-07-08T07:03:01;12.05;;;4.93;;
66802;SDS011;53705;49.860;8.744;2023-07-08T07:05:29;8.43;;;3.60;;
66802;SDS011;53705;49.860;8.744;2023-07-08T07:07:58;9.15;;;3.28;;
66802;SDS011;53705;49.860;8.744;2023-07-08T07:10:26;8.02;;;3.83;;
66802;SDS011;53705;49.860;8.744;2023-07-08T07:12:54;9.07;;;4.57;;
66802;SDS011;53705;49.860;8.744;2023-07-08T07:15:22;9.68;;;4.05;;
66802;SDS011;53705;49.860;8.744;2023-07-08T07:17:51;9.70;;;4.13;;
66802;SDS011;53705;49.860;8.744;2023-07-08T07:20:19;8.10;;;3.20;;
66802;SDS011;53705;49.860;8.744;2023-07-08T07:22:53;7.97;;;3.55;;
66802;SDS011;53705;49.860;8.744;2023-07-08T07:25:23;8.27;;;3.72;;
66802;SDS011;53705;49.860;8.744;2023-07-08T07:27:52;11.73;;;3.92;;
66802;SDS011;53705;49.860;8.744;2023-07-08T07:30:20;9.00;;;3.75;;
66802;SDS011;53705;49.860;8.744;2023-07-08T07:32:48;9.38;;;4.25;;
66802;SDS011;53705;49.860;8.744;2023-07-08T07:35:17;8.32;;;3.55;;
66802;SDS011;53705;49.860;8.744;2023-07-08T07:37:45;8.60;;;3.55;;
66802;SDS011;53705;49.860;8.744;2023-07-08T07:40:14;8.77;;;3.42;;
66802;SDS011;53705;49.860;8.744;2023-07-08T07:42:44;7.50;;;3.38;;
66802;SDS011;53705;49.860;8.744;2023-07-08T07:45:13;8.40;;;3.30;;
66802;SDS011;53705;49.860;8.744;2023-07-08T07:47:42;8.48;;;3.63;;
66802;SDS011;53705;49.860;8.744;2023-07-08T07:50:10;6.70;;;3.33;;
66802;SDS011;53705;49.860;8.744;2023-07-08T07:52:40;10.27;;;4.25;;
66802;SDS011;53705;49.860;8.744;2023-07-08T07:55:10;7.65;;;3.58;;
66802;SDS011;53705;49.860;8.744;2023-07-08T07:57:38;11.38;;;3.92;;
66802;SDS011;53705;49.860;8.744;2023-07-08T08:00:11;7.15;;;2.80;;
66802;SDS011;53705;49.860;8.744;2023-07-08T08:02:43;7.85;;;2.50;;
66802;SDS011;53705;49.860;8.744;2023-07-08T08:05:11;7.85;;;3.33;;
66802;SDS011;53705;49.860;8.744;2023-07-08T08:07:39;6.20;;;2.45;;
66802;SDS011;53705;49.860;8.744;2023-07-08T08:10:08;6.07;;;2.55;;
66802;SDS011;53705;49.860;8.744;2023-07-08T08:12:38;6.85;;;3.00;;
66802;SDS011;53705;49.860;8.744;2023-07-08T08:15:33;8.13;;;2.78;;
66802;SDS011;53705;49.860;8.744;2023-07-08T08:18:01;8.60;;;3.15;;
66802;SDS011;53705;49.860;8.744;2023-07-08T08:20:31;10.00;;;3.88;;
66802;SDS011;53705;49.860;8.744;2023-07-08T08:23:03;8.75;;;3.33;;
66802;SDS011;53705;49.860;8.744;2023-07-08T08:25:34;7.20;;;2.83;;
66802;SDS011;53705;49.860;8.744;2023-07-08T08:28:04;7.80;;;3.38;;
66802;SDS011;53705;49.860;8.744;2023-07-08T08:30:34;8.00;;;2.90;;
66802;SDS011;53705;49.860;8.744;2023-07-08T08:33:06;7.80;;;2.90;;
66802;SDS011;53705;49.860;8.744;2023-07-08T08:35:34;8.68;;;3.08;;
66802;SDS011;53705;49.860;8.744;2023-07-08T08:38:03;6.78;;;2.92;;
66802;SDS011;53705;49.860;8.744;2023-07-08T08:40:31;8.52;;;3.28;;
66802;SDS011;53705;49.860;8.744;2023-07-08T08:43:01;12.18;;;2.88;;
66802;SDS011;53705;49.860;8.744;2023-07-08T08:45:31;7.15;;;2.97;;
66802;SDS011;53705;49.860;8.744;2023-07-08T08:48:05;12.77;;;3.75;;
66802;SDS011;53705;49.860;8.744;2023-07-08T08:50:36;11.00;;;3.50;;
66802;SDS011;53705;49.860;8.744;2023-07-08T08:53:11;10.07;;;3.55;;
66802;SDS011;53705;49.860;8.744;2023-07-08T08:55:40;7.18;;;2.85;;
66802;SDS011;53705;49.860;8.744;2023-07-08T09:00:51;6.53;;;2.83;;
66802;SDS011;53705;49.860;8.744;2023-07-08T09:03:28;8.68;;;2.95;;
66802;SDS011;53705;49.860;8.744;2023-07-08T09:05:58;7.90;;;3.05;;
66802;SDS011;53705;49.860;8.744;2023-07-08T09:08:28;10.70;;;3.10;;
66802;SDS011;53705;49.860;8.744;2023-07-08T09:11:00;9.00;;;2.67;;
66802;SDS011;53705;49.860;8.744;2023-07-08T09:13:29;9.18;;;2.95;;
66802;SDS011;53705;49.860;8.744;2023-07-08T09:15:59;9.15;;;3.60;;
66802;SDS011;53705;49.860;8.744;2023-07-08T09:18:32;8.93;;;3.55;;
66802;SDS011;53705;49.860;8.744;2023-07-08T09:21:01;9.60;;;3.13;;
66802;SDS011;53705;49.860;8.744;2023-07-08T09:23:32;8.90;;;3.28;;
66802;SDS011;53705;49.860;8.744;2023-07-08T09:26:05;9.07;;;3.45;;
66802;SDS011;53705;49.860;8.744;2023-07-08T09:28:38;7.63;;;3.03;;
66802;SDS011;53705;49.860;8.744;2023-07-08T09:31:08;9.30;;;3.38;;
66802;SDS011;53705;49.860;8.744;2023-07-08T09:33:38;8.88;;;2.92;;
66802;SDS011;53705;49.860;8.744;2023-07-08T09:36:16;7.10;;;3.00;;
66802;SDS011;53705;49.860;8.744;2023-07-08T09:38:46;8.65;;;3.00;;
66802;SDS011;53705;49.860;8.744;2023-07-08T09:41:17;8.00;;;3.38;;
66802;SDS011;53705;49.860;8.744;2023-07-08T09:44:02;10.43;;;3.53;;
66802;SDS011;53705;49.860;8.744;2023-07-08T09:46:42;9.00;;;3.47;;
66802;SDS011;53705;49.860;8.744;2023-07-08T09:49:21;6.72;;;2.45;;
66802;SDS011;53705;49.860;8.744;2023-07-08T09:51:50;7.72;;;2.95;;
66802;SDS011;53705;49.860;8.744;2023-07-08T09:54:19;7.75;;;3.10;;
66802;SDS011;53705;49.860;8.744;2023-07-08T09:56:52;10.00;;;2.97;;
66802;SDS011;53705;49.860;8.744;2023-07-08T09:59:22;6.32;;;2.42;;
66802;SDS011;53705;49.860;8.744;2023-07-08T10:01:51;8.75;;;3.13;;
66802;SDS011;53705;49.860;8.744;2023-07-08T10:04:21;8.30;;;3.15;;
66802;SDS011;53705;49.860;8.744;2023-07-08T10:06:49;7.10;;;2.67;;
66802;SDS011;53705;49.860;8.744;2023-07-08T10:09:20;7.90;;;3.05;;
66802;SDS011;53705;49.860;8.744;2023-07-08T10:11:48;7.70;;;2.30;;
66802;SDS011;53705;49.860;8.744;2023-07-08T10:14:24;7.25;;;3.15;;
66802;SDS011;53705;49.860;8.744;2023-07-08T10:16:53;6.07;;;1.98;;
66802;SDS011;53705;49.860;8.744;2023-07-08T10:19:23;7.38;;;2.15;;
66802;SDS011;53705;49.860;8.744;2023-07-08T10:21:54;5.93;;;2.58;;
66802;SDS011;53705;49.860;8.744;2023-07-08T10:24:27;10.57;;;3.20;;
66802;SDS011;53705;49.860;8.744;2023-07-08T10:26:59;5.90;;;2.30;;
66802;SDS011;53705;49.860;8.744;2023-07-08T10:29:31;6.28;;;2.30;;
66802;SDS011;53705;49.860;8.744;2023-07-08T10:32:03;6.82;;;2.25;;
66802;SDS011;53705;49.860;8.744;2023-07-08T10:34:39;6.07;;;2.45;;
66802;SDS011;53705;49.860;8.744;2023-07-08T10:37:18;5.53;;;2.15;;
66802;SDS011;53705;49.860;8.744;2023-07-08T10:39:52;6.75;;;2.40;;
66802;SDS011;53705;49.860;8.744;2023-07-08T10:42:26;6.93;;;2.53;;
66802;SDS011;53705;49.860;8.744;2023-07-08T10:44:58;11.10;;;3.47;;
66802;SDS011;53705;49.860;8.744;2023-07-08T10:47:35;7.05;;;2.70;;
66802;SDS011;53705;49.860;8.744;2023-07-08T10:50:15;5.95;;;2.33;;
66802;SDS011;53705;49.860;8.744;2023-07-08T10:52:50;6.22;;;2.72;;
66802;SDS011;53705;49.860;8.744;2023-07-08T10:55:20;9.15;;;2.60;;
66802;SDS011;53705;49.860;8.744;2023-07-08T11:00:50;6.57;;;2.58;;
66802;SDS011;53705;49.860;8.744;2023-07-08T11:03:30;5.60;;;2.05;;
66802;SDS011;53705;49.860;8.744;2023-07-08T11:06:08;8.27;;;2.47;;
66802;SDS011;53705;49.860;8.744;2023-07-08T11:08:39;6.88;;;2.80;;
66802;SDS011;53705;49.860;8.744;2023-07-08T11:11:09;9.23;;;2.83;;
66802;SDS011;53705;49.860;8.744;2023-07-08T11:13:42;5.38;;;2.30;;
66802;SDS011;53705;49.860;8.744;2023-07-08T11:16:13;6.72;;;3.08;;
66802;SDS011;53705;49.860;8.744;2023-07-08T11:18:43;6.57;;;2.33;;
66802;SDS011;53705;49.860;8.744;2023-07-08T11:21:34;10.13;;;2.10;;
66802;SDS011;53705;49.860;8.744;2023-07-08T11:24:04;6.00;;;1.73;;
66802;SDS011;53705;49.860;8.744;2023-07-08T11:26:37;5.30;;;1.73;;
66802;SDS011;53705;49.860;8.744;2023-07-08T11:29:11;6.20;;;1.95;;
66802;SDS011;53705;49.860;8.744;2023-07-08T11:31:46;5.93;;;2.38;;
66802;SDS011;53705;49.860;8.744;2023-07-08T11:34:15;8.15;;;3.47;;
66802;SDS011;53705;49.860;8.744;2023-07-08T11:36:45;7.35;;;2.33;;
66802;SDS011;53705;49.860;8.744;2023-07-08T11:39:25;5.45;;;1.67;;
66802;SDS011;53705;49.860;8.744;2023-07-08T11:44:50;5.05;;;1.75;;
66802;SDS011;53705;49.860;8.744;2023-07-08T11:47:32;4.32;;;1.52;;
66802;SDS011;53705;49.860;8.744;2023-07-08T11:50:02;4.63;;;1.63;;
66802;SDS011;53705;49.860;8.744;2023-07-08T11:52:32;4.13;;;1.90;;
66802;SDS011;53705;49.860;8.744;2023-07-08T11:55:03;8.25;;;2.40;;
66802;SDS011;53705;49.860;8.744;2023-07-08T11:57:36;4.65;;;1.70;;
66802;SDS011;53705;49.860;8.744;2023-07-08T12:00:10;5.90;;;2.10;;
66802;SDS011;53705;49.860;8.744;2023-07-08T12:02:47;4.25;;;1.10;;
66802;SDS011;53705;49.860;8.744;2023-07-08T12:05:28;6.20;;;2.03;;
66802;SDS011;53705;49.860;8.744;2023-07-08T12:07:58;5.57;;;1.40;;
66802;SDS011;53705;49.860;8.744;2023-07-08T12:10:30;6.80;;;2.65;;
66802;SDS011;53705;49.860;8.744;2023-07-08T12:12:59;5.90;;;1.60;;
66802;SDS011;53705;49.860;8.744;2023-07-08T12:15:28;4.85;;;1.85;;
66802;SDS011;53705;49.860;8.744;2023-07-08T12:17:58;4.57;;;1.83;;
66802;SDS011;53705;49.860;8.744;2023-07-08T12:20:28;5.60;;;1.95;;
66802;SDS011;53705;49.860;8.744;2023-07-08T12:22:59;4.05;;;1.63;;
66802;SDS011;53705;49.860;8.744;2023-07-08T12:25:28;5.00;;;1.75;;
66802;SDS011;53705;49.860;8.744;2023-07-08T12:27:58;4.10;;;1.67;;
66802;SDS011;53705;49.860;8.744;2023-07-08T12:30:27;6.30;;;1.73;;
66802;SDS011;53705;49.860;8.744;2023-07-08T12:32:56;5.68;;;1.70;;
66802;SDS011;53705;49.860;8.744;2023-07-08T12:37:59;6.80;;;1.60;;
66802;SDS011;53705;49.860;8.744;2023-07-08T12:40:28;4.50;;;1.80;;
66802;SDS011;53705;49.860;8.744;2023-07-08T12:42:57;4.13;;;1.67;;
66802;SDS011;53705;49.860;8.744;2023-07-08T12:45:27;5.60;;;1.50;;
66802;SDS011;53705;49.860;8.744;2023-07-08T12:47:58;4.35;;;1.65;;
66802;SDS011;53705;49.860;8.744;2023-07-08T12:50:27;5.85;;;1.73;;
66802;SDS011;53705;49.860;8.744;2023-07-08T12:52:55;3.40;;;1.67;;
66802;SDS011;53705;49.860;8.744;2023-07-08T12:55:25;8.13;;;1.88;;
66802;SDS011;53705;49.860;8.744;2023-07-08T12:57:54;5.30;;;1.48;;
66802;SDS011;53705;49.860;8.744;2023-07-08T13:00:23;4.20;;;2.10;;
66802;SDS011;53705;49.860;8.744;2023-07-08T13:02:55;5.28;;;1.65;;
66802;SDS011;53705;49.860;8.744;2023-07-08T13:05:27;4.28;;;1.92;;
66802;SDS011;53705;49.860;8.744;2023-07-08T13:07:55;6.60;;;1.60;;
66802;SDS011;53705;49.860;8.744;2023-07-08T13:10:38;5.32;;;2.30;;
66802;SDS011;53705;49.860;8.744;2023-07-08T13:13:12;3.72;;;1.45;;
66802;SDS011;53705;49.860;8.744;2023-07-08T13:15:43;5.38;;;1.60;;
66802;SDS011;53705;49.860;8.744;2023-07-08T13:18:26;3.95;;;1.27;;
66802;SDS011;53705;49.860;8.744;2023-07-08T13:21:08;9.30;;;4.50;;
66802;SDS011;53705;49.860;8.744;2023-07-08T13:23:38;10.35;;;7.10;;
66802;SDS011;53705;49.860;8.744;2023-07-08T13:26:14;4.38;;;2.25;;
66802;SDS011;53705;49.860;8.744;2023-07-08T13:28:49;5.32;;;2.05;;
66802;SDS011;53705;49.860;8.744;2023-07-08T13:31:18;5.47;;;2.38;;
66802;SDS011;53705;49.860;8.744;2023-07-08T13:33:51;5.82;;;2.35;;
66802;SDS011;53705;49.860;8.744;2023-07-08T13:36:21;7.78;;;2.75;;
66802;SDS011;53705;49.860;8.744;2023-07-08T13:38:50;4.72;;;1.92;;
66802;SDS011;53705;49.860;8.744;2023-07-08T13:41:21;4.22;;;1.48;;
66802;SDS011;53705;49.860;8.744;2023-07-08T13:43:49;4.63;;;2.25;;
66802;SDS011;53705;49.860;8.744;2023-07-08T13:49:12;5.63;;;1.67;;
66802;SDS011;53705;49.860;8.744;2023-07-08T13:51:40;5.18;;;1.83;;
66802;SDS011;53705;49.860;8.744;2023-07-08T13:54:12;5.57;;;1.95;;
66802;SDS011;53705;49.860;8.744;2023-07-08T13:56:42;5.82;;;1.90;;
66802;SDS011;53705;49.860;8.744;2023-07-08T13:59:12;6.47;;;2.10;;
66802;SDS011;53705;49.860;8.744;2023-07-08T14:01:43;5.00;;;2.33;;
66802;SDS011;53705;49.860;8.744;2023-07-08T14:04:12;4.60;;;2.05;;
66802;SDS011;53705;49.860;8.744;2023-07-08T14:06:41;6.30;;;2.45;;
66802;SDS011;53705;49.860;8.744;2023-07-08T14:09:11;7.68;;;1.73;;
66802;SDS011;53705;49.860;8.744;2023-07-08T14:11:39;8.50;;;2.47;;
66802;SDS011;53705;49.860;8.744;2023-07-08T14:14:09;4.68;;;2.03;;
66802;SDS011;53705;49.860;8.744;2023-07-08T14:16:38;4.97;;;2.45;;
66802;SDS011;53705;49.860;8.744;2023-07-08T14:19:07;4.53;;;2.05;;
66802;SDS011;53705;49.860;8.744;2023-07-08T14:21:37;4.30;;;1.40;;
66802;SDS011;53705;49.860;8.744;2023-07-08T14:24:11;4.72;;;2.38;;
66802;SDS011;53705;49.860;8.744;2023-07-08T14:26:41;5.70;;;2.25;;
66802;SDS011;53705;49.860;8.744;2023-07-08T14:29:11;5.38;;;1.83;;
66802;SDS011;53705;49.860;8.744;2023-07-08T14:31:39;6.03;;;2.42;;
66802;SDS011;53705;49.860;8.744;2023-07-08T14:34:08;6.35;;;2.92;;
66802;SDS011;53705;49.860;8.744;2023-07-08T14:36:36;5.32;;;2.00;;
66802;SDS011;53705;49.860;8.744;2023-07-08T14:39:08;5.50;;;2.30;;
66802;SDS011;53705;49.860;8.744;2023-07-08T14:41:37;4.78;;;2.13;;
66802;SDS011;53705;49.860;8.744;2023-07-08T14:44:12;4.18;;;1.90;;
66802;SDS011;53705;49.860;8.744;2023-07-08T14:46:45;6.72;;;1.83;;
66802;SDS011;53705;49.860;8.744;2023-07-08T14:49:15;6.82;;;2.10;;
66802;SDS011;53705;49.860;8.744;2023-07-08T14:51:43;5.25;;;2.97;;
66802;SDS011;53705;49.860;8.744;2023-07-08T14:54:10;5.15;;;1.58;;
66802;SDS011;53705;49.860;8.744;2023-07-08T14:56:39;8.23;;;1.60;;
66802;SDS011;53705;49.860;8.744;2023-07-08T14:59:08;5.18;;;2.05;;
66802;SDS011;53705;49.860;8.744;2023-07-08T15:01:40;4.13;;;1.35;;
66802;SDS011;53705;49.860;8.744;2023-07-08T15:04:09;4.45;;;1.45;;
66802;SDS011;53705;49.860;8.744;2023-07-08T15:06:38;8.07;;;1.55;;
66802;SDS011;53705;49.860;8.744;2023-07-08T15:09:06;5.10;;;1.52;;
66802;SDS011;53705;49.860;8.744;2023-07-08T15:11:34;4.40;;;1.48;;
66802;SDS011;53705;49.860;8.744;2023-07-08T15:14:18;4.38;;;1.83;;